Time;durP1;ratioP1;P1;durP2;ratioP2;P2;SDS_P1;SDS_P2;PMS_P1;PMS_P2;Temp;Humidity;BMP_temperature;BMP_pressure;BME280_temperature;BME280_humidity;BME280_pressure;Samples;Min_cycle;Max_cycle;Signal;HPM_P1;HPM_P2
2021/09/19 00:01:22;;;;;;;3.63;2.53;;;15.90;99.90;;;;;;4859084;29;20060;-81
2021/09/19 00:03:48;;;;;;;3.40;2.60;;;15.90;99.90;;;;;;4860003;29;20506;-81
2021/09/19 00:06:14;;;;;;;4.85;2.40;;;16.10;99.90;;;;;;4858301;29;20050;-81
2021/09/19 00:08:42;;;;;;;7.05;2.20;;;15.90;99.90;;;;;;4859720;29;20054;-81
2021/09/19 00:11:08;;;;;;;3.80;2.08;;;15.90;99.90;;;;;;4827017;29;20534;-81
2021/09/19 00:13:37;;;;;;;3.13;2.10;;;15.90;99.90;;;;;;4844323;29;20045;-81
2021/09/19 00:16:04;;;;;;;3.53;2.40;;;15.90;99.90;;;;;;4859429;29;20129;-81
2021/09/19 00:18:30;;;;;;;4.50;2.40;;;15.90;99.90;;;;;;4859362;29;20085;-81
2021/09/19 00:20:56;;;;;;;5.35;2.22;;;16.00;99.90;;;;;;4826948;29;20502;-81
2021/09/19 00:23:22;;;;;;;4.68;2.50;;;16.00;99.90;;;;;;4855665;29;20045;-81
2021/09/19 00:25:50;;;;;;;4.88;2.70;;;16.00;99.90;;;;;;4859410;29;20093;-81
2021/09/19 00:28:16;;;;;;;3.63;2.25;;;16.00;99.90;;;;;;4859162;29;20070;-80
2021/09/19 00:30:43;;;;;;;5.43;2.60;;;16.00;99.90;;;;;;4842242;29;20045;-81
2021/09/19 00:33:09;;;;;;;4.00;2.50;;;16.00;99.90;;;;;;4849849;29;20443;-81
2021/09/19 00:35:35;;;;;;;2.90;2.47;;;16.00;99.90;;;;;;4843840;29;20046;-81
2021/09/19 00:38:01;;;;;;;3.58;2.42;;;16.00;99.90;;;;;;4858968;29;20554;-81
2021/09/19 00:40:27;;;;;;;4.95;2.78;;;15.90;99.90;;;;;;4828716;29;20129;-81
2021/09/19 00:42:53;;;;;;;3.72;2.25;;;15.90;99.90;;;;;;4842232;29;21534;-81
2021/09/19 00:45:21;;;;;;;3.40;2.58;;;15.90;99.90;;;;;;4827498;29;20042;-81
2021/09/19 00:47:47;;;;;;;6.70;3.03;;;15.90;99.90;;;;;;4843636;29;20049;-81
2021/09/19 00:50:16;;;;;;;4.10;3.00;;;15.90;99.90;;;;;;4859273;29;20037;-81
2021/09/19 00:52:46;;;;;;;5.05;2.95;;;16.30;99.90;;;;;;4843415;29;20360;-81
2021/09/19 00:55:14;;;;;;;9.05;3.00;;;15.80;99.90;;;;;;4856946;29;20100;-81
2021/09/19 00:57:42;;;;;;;3.42;2.95;;;15.80;99.90;;;;;;4859151;29;20458;-81
2021/09/19 01:00:11;;;;;;;4.70;3.22;;;15.80;99.90;;;;;;4858432;29;20058;-81
2021/09/19 01:02:37;;;;;;;6.40;4.15;;;15.80;99.90;;;;;;4839951;29;20495;-81
2021/09/19 01:05:07;;;;;;;5.05;3.70;;;15.80;99.90;;;;;;4843230;29;20042;-81
2021/09/19 01:07:33;;;;;;;4.50;3.80;;;15.70;99.90;;;;;;4843341;29;20124;-77
2021/09/19 01:10:02;;;;;;;5.50;3.90;;;15.70;99.90;;;;;;4859903;29;20177;-77
2021/09/19 01:12:28;;;;;;;8.43;3.88;;;15.70;99.90;;;;;;4828243;29;20041;-77
2021/09/19 01:14:57;;;;;;;8.90;4.05;;;15.70;99.90;;;;;;4843235;29;20045;-77
2021/09/19 01:17:23;;;;;;;6.15;4.68;;;15.80;99.90;;;;;;4855701;29;20513;-77
2021/09/19 01:19:55;;;;;;;7.82;4.75;;;15.80;99.90;;;;;;4869584;29;20102;-78
2021/09/19 01:22:38;;;;;;;9.05;4.57;;;15.90;99.90;;;;;;4852651;29;20049;-78
2021/09/19 01:25:10;;;;;;;11.45;5.18;;;15.80;99.90;;;;;;4855166;29;20048;-77
2021/09/19 01:27:39;;;;;;;8.15;5.30;;;15.80;99.90;;;;;;4856968;29;20129;-77
2021/09/19 01:30:07;;;;;;;10.10;5.45;;;15.80;99.90;;;;;;4858688;29;20048;-77
2021/09/19 01:32:34;;;;;;;6.53;5.30;;;15.80;99.90;;;;;;4859818;29;20109;-78
2021/09/19 01:35:02;;;;;;;10.15;5.65;;;15.80;99.90;;;;;;4841586;29;20452;-78
2021/09/19 01:37:31;;;;;;;7.28;5.75;;;15.70;99.90;;;;;;4849300;29;20050;-78
2021/09/19 01:39:59;;;;;;;8.50;5.93;;;15.80;99.90;;;;;;4843168;29;20049;-78
2021/09/19 01:42:31;;;;;;;10.23;6.07;;;15.80;99.90;;;;;;4843150;29;20132;-78
2021/09/19 01:44:59;;;;;;;9.82;6.25;;;15.80;99.90;;;;;;4843428;29;20529;-77
2021/09/19 01:47:28;;;;;;;7.10;5.38;;;15.80;99.90;;;;;;4839993;29;20052;-77
2021/09/19 01:49:57;;;;;;;8.65;5.75;;;16.10;99.90;;;;;;4840522;29;20154;-78
2021/09/19 01:52:22;;;;;;;8.80;5.78;;;15.80;99.90;;;;;;4837717;29;20092;-78
2021/09/19 01:54:48;;;;;;;8.98;5.78;;;15.80;99.90;;;;;;4858514;29;20461;-78
2021/09/19 01:57:23;;;;;;;7.68;5.68;;;15.80;99.90;;;;;;4859905;29;20049;-78
2021/09/19 01:59:52;;;;;;;7.95;5.80;;;15.80;99.90;;;;;;4845596;29;20046;-78
2021/09/19 02:02:19;;;;;;;8.70;5.47;;;15.80;99.90;;;;;;4861329;29;20057;-78
2021/09/19 02:04:48;;;;;;;8.88;5.53;;;15.80;99.90;;;;;;4862028;29;20101;-78
2021/09/19 02:07:14;;;;;;;10.07;5.53;;;15.80;99.90;;;;;;4861317;29;20105;-78
2021/09/19 02:09:42;;;;;;;8.43;5.93;;;15.70;99.90;;;;;;4829248;29;20045;-78
2021/09/19 02:12:08;;;;;;;11.13;5.68;;;15.70;99.90;;;;;;4862901;29;20037;-78
2021/09/19 02:14:35;;;;;;;6.13;5.35;;;15.70;99.90;;;;;;4846411;29;20049;-78
2021/09/19 02:17:01;;;;;;;7.65;5.63;;;15.60;99.90;;;;;;4861683;29;20124;-78
2021/09/19 02:19:32;;;;;;;7.38;5.28;;;15.60;99.90;;;;;;4862015;29;20053;-77
2021/09/19 02:21:58;;;;;;;9.65;5.78;;;16.00;99.90;;;;;;4860864;29;20532;-77
2021/09/19 02:24:23;;;;;;;8.35;5.50;;;15.60;99.90;;;;;;4861453;29;20070;-77
2021/09/19 02:26:49;;;;;;;8.40;5.60;;;15.70;99.90;;;;;;4859906;29;20053;-77
2021/09/19 02:29:15;;;;;;;7.63;5.10;;;15.60;99.90;;;;;;4862058;29;20076;-77
2021/09/19 02:31:41;;;;;;;13.38;5.13;;;15.70;99.90;;;;;;4861194;29;20117;-78
2021/09/19 02:34:06;;;;;;;10.85;5.40;;;15.70;99.90;;;;;;4830672;29;20048;-77
2021/09/19 02:36:32;;;;;;;12.45;5.18;;;15.70;99.90;;;;;;4861225;29;20279;-78
2021/09/19 02:39:01;;;;;;;13.15;4.90;;;15.70;99.90;;;;;;4830574;29;20056;-77
2021/09/19 02:41:27;;;;;;;9.48;4.65;;;15.70;99.90;;;;;;4861540;29;20398;-78
2021/09/19 02:43:52;;;;;;;9.88;4.75;;;15.60;99.90;;;;;;4855455;29;20046;-78
2021/09/19 02:46:18;;;;;;;10.30;4.78;;;15.60;99.90;;;;;;4844344;29;20455;-78
2021/09/19 02:48:44;;;;;;;11.88;5.28;;;15.60;99.90;;;;;;4861016;29;20124;-78
2021/09/19 02:51:12;;;;;;;6.78;4.45;;;15.60;99.90;;;;;;4830376;29;20042;-78
2021/09/19 02:53:38;;;;;;;9.68;4.57;;;15.60;99.90;;;;;;4862352;29;20030;-77
2021/09/19 02:56:04;;;;;;;8.18;4.72;;;15.60;99.90;;;;;;4860280;29;20394;-78
2021/09/19 02:58:29;;;;;;;7.57;4.28;;;15.60;99.90;;;;;;4843626;29;20410;-77
2021/09/19 03:00:55;;;;;;;9.88;4.65;;;15.60;99.90;;;;;;4846035;29;20049;-78
2021/09/19 03:03:21;;;;;;;9.40;4.70;;;15.50;99.90;;;;;;4845361;29;20046;-77
2021/09/19 03:05:47;;;;;;;9.15;4.85;;;15.80;99.90;;;;;;4860826;29;20057;-77
2021/09/19 03:08:12;;;;;;;9.38;4.88;;;15.40;99.90;;;;;;4860502;29;20387;-78
2021/09/19 03:10:38;;;;;;;8.32;4.50;;;15.40;99.90;;;;;;4838133;29;20402;-77
2021/09/19 03:13:04;;;;;;;11.82;4.63;;;15.40;99.90;;;;;;4857508;29;20049;-77
2021/09/19 03:15:30;;;;;;;7.20;4.57;;;15.40;99.90;;;;;;4858688;29;20390;-77
2021/09/19 03:17:57;;;;;;;7.32;4.72;;;15.40;99.90;;;;;;4861677;29;20078;-78
2021/09/19 03:20:23;;;;;;;10.57;4.90;;;15.40;99.90;;;;;;4860144;29;20046;-78
2021/09/19 03:22:48;;;;;;;12.48;4.78;;;15.30;99.90;;;;;;4861571;29;20051;-77
2021/09/19 03:25:14;;;;;;;11.10;5.03;;;15.30;99.90;;;;;;4860147;29;20128;-78
2021/09/19 03:27:42;;;;;;;6.88;4.90;;;15.20;99.90;;;;;;4859415;29;20049;-78
2021/09/19 03:30:09;;;;;;;11.18;4.78;;;15.10;99.90;;;;;;4860081;29;20045;-78
2021/09/19 03:32:35;;;;;;;10.65;5.25;;;15.10;99.90;;;;;;4859007;29;20041;-78
2021/09/19 03:35:01;;;;;;;9.35;5.32;;;15.10;99.90;;;;;;4861583;29;20051;-78
2021/09/19 03:37:27;;;;;;;10.55;5.20;;;15.00;99.90;;;;;;4844370;29;20045;-78
2021/09/19 03:39:52;;;;;;;11.07;5.07;;;15.00;99.90;;;;;;4845079;29;20076;-78
2021/09/19 03:42:18;;;;;;;11.65;4.90;;;15.00;99.90;;;;;;4860101;29;20510;-78
2021/09/19 03:44:44;;;;;;;9.80;4.95;;;15.00;99.90;;;;;;4844533;29;20057;-78
2021/09/19 03:47:09;;;;;;;7.22;4.50;;;15.00;99.90;;;;;;4858439;29;20048;-78
2021/09/19 03:49:35;;;;;;;7.03;5.10;;;15.00;99.90;;;;;;4860350;29;20044;-78
2021/09/19 03:52:01;;;;;;;12.02;5.70;;;14.90;99.90;;;;;;4859923;29;20038;-77
2021/09/19 03:54:29;;;;;;;7.68;5.03;;;14.90;99.90;;;;;;4859854;29;20049;-78
2021/09/19 03:56:55;;;;;;;12.63;4.95;;;14.80;99.90;;;;;;4861283;29;20085;-77
2021/09/19 03:59:20;;;;;;;7.50;4.75;;;14.80;99.90;;;;;;4859183;29;20387;-77
2021/09/19 04:01:46;;;;;;;9.90;5.20;;;14.70;99.90;;;;;;4859759;29;20069;-77
2021/09/19 04:04:12;;;;;;;8.18;4.55;;;14.70;99.90;;;;;;4861199;29;20052;-77
2021/09/19 04:06:38;;;;;;;10.57;5.38;;;14.70;99.90;;;;;;4859391;29;20045;-77
2021/09/19 04:09:03;;;;;;;10.43;5.00;;;14.70;99.90;;;;;;4860803;29;20105;-77
2021/09/19 04:11:29;;;;;;;7.93;4.97;;;14.60;99.90;;;;;;4859907;29;20037;-77
2021/09/19 04:13:55;;;;;;;8.65;4.82;;;14.70;99.90;;;;;;4859774;29;20521;-77
2021/09/19 04:16:21;;;;;;;9.95;4.95;;;14.70;99.90;;;;;;4826900;29;20410;-78
2021/09/19 04:18:47;;;;;;;10.65;4.50;;;14.60;99.90;;;;;;4860810;29;20083;-77
2021/09/19 04:21:12;;;;;;;9.93;4.82;;;14.80;99.90;;;;;;4860225;29;20081;-77
2021/09/19 04:23:38;;;;;;;10.60;4.88;;;14.60;99.90;;;;;;4843921;29;20493;-78
2021/09/19 04:26:04;;;;;;;8.52;5.00;;;14.70;99.90;;;;;;4860071;29;20392;-77
2021/09/19 04:28:29;;;;;;;10.40;5.45;;;14.70;99.90;;;;;;4859473;29;20038;-77
2021/09/19 04:30:55;;;;;;;15.55;5.55;;;14.60;99.90;;;;;;4843899;29;20102;-78
2021/09/19 04:33:21;;;;;;;6.88;4.35;;;14.60;99.90;;;;;;4842838;29;20053;-78
2021/09/19 04:35:46;;;;;;;8.07;4.80;;;14.60;99.90;;;;;;4843865;29;20502;-78
2021/09/19 04:38:13;;;;;;;10.65;4.60;;;14.60;99.90;;;;;;4829106;29;20533;-83
2021/09/19 04:40:39;;;;;;;6.70;4.50;;;14.60;99.90;;;;;;4843880;29;20132;-82
2021/09/19 04:43:04;;;;;;;8.32;4.40;;;14.60;99.90;;;;;;4837984;29;20567;-82
2021/09/19 04:45:30;;;;;;;10.95;5.15;;;14.60;99.90;;;;;;4838414;29;20427;-82
2021/09/19 04:47:56;;;;;;;10.02;4.00;;;14.60;99.90;;;;;;4859474;29;20407;-82
2021/09/19 04:50:21;;;;;;;8.48;4.43;;;14.50;99.90;;;;;;4859598;29;20109;-82
2021/09/19 04:52:47;;;;;;;7.95;4.40;;;14.50;99.90;;;;;;4859061;29;20038;-82
2021/09/19 04:55:13;;;;;;;11.68;5.10;;;14.40;99.90;;;;;;4859423;29;20057;-82
2021/09/19 04:57:38;;;;;;;11.98;4.80;;;14.40;99.90;;;;;;4844103;29;20104;-82
2021/09/19 05:00:05;;;;;;;12.60;4.60;;;14.40;99.90;;;;;;4860573;29;20045;-81
2021/09/19 05:02:31;;;;;;;7.90;4.40;;;14.30;99.90;;;;;;4860265;29;20045;-82
2021/09/19 05:04:59;;;;;;;12.15;4.38;;;14.30;99.90;;;;;;4844591;29;20072;-81
2021/09/19 05:07:25;;;;;;;8.48;4.70;;;14.30;99.90;;;;;;4858541;29;20038;-77
2021/09/19 05:09:50;;;;;;;13.20;4.88;;;14.30;99.90;;;;;;4858458;29;20049;-77
2021/09/19 05:12:16;;;;;;;6.88;4.55;;;14.30;99.90;;;;;;4843617;29;20041;-77
2021/09/19 05:14:42;;;;;;;8.63;4.65;;;14.20;99.90;;;;;;4859934;29;20045;-78
2021/09/19 05:17:08;;;;;;;10.15;4.65;;;14.20;99.90;;;;;;4859061;29;20057;-77
2021/09/19 05:19:33;;;;;;;10.13;4.88;;;14.30;99.90;;;;;;4859683;29;20090;-78
2021/09/19 05:21:59;;;;;;;11.10;4.25;;;14.20;99.90;;;;;;4843461;29;20406;-78
2021/09/19 05:24:25;;;;;;;7.72;4.90;;;14.20;99.90;;;;;;4858601;29;20045;-77
2021/09/19 05:26:50;;;;;;;8.02;3.90;;;14.20;99.90;;;;;;4843200;29;20052;-77
2021/09/19 05:29:16;;;;;;;9.90;4.57;;;14.10;99.90;;;;;;4845964;29;20474;-77
2021/09/19 05:31:42;;;;;;;9.55;4.18;;;14.30;99.90;;;;;;4859018;29;20423;-77
2021/09/19 05:34:07;;;;;;;8.57;4.82;;;14.10;99.90;;;;;;4862562;29;20420;-77
2021/09/19 05:36:33;;;;;;;6.88;4.32;;;14.10;99.90;;;;;;4863458;29;20124;-77
2021/09/19 05:38:59;;;;;;;8.45;4.40;;;14.10;99.90;;;;;;4847030;29;20072;-77
2021/09/19 05:41:25;;;;;;;10.45;4.47;;;14.10;99.90;;;;;;4861983;29;20521;-77
2021/09/19 05:43:50;;;;;;;7.60;4.60;;;14.20;99.90;;;;;;4846557;29;20045;-77
2021/09/19 05:46:19;;;;;;;6.18;4.07;;;14.10;99.90;;;;;;4862063;29;20033;-78
2021/09/19 05:48:45;;;;;;;6.72;4.18;;;14.20;99.90;;;;;;4862157;29;20050;-78
2021/09/19 05:51:11;;;;;;;10.15;4.55;;;14.00;99.90;;;;;;4860355;29;20102;-78
2021/09/19 05:53:38;;;;;;;12.15;4.65;;;14.10;99.90;;;;;;4861636;29;20069;-78
2021/09/19 05:56:04;;;;;;;10.27;4.65;;;14.10;99.90;;;;;;4862991;29;20077;-78
2021/09/19 05:58:30;;;;;;;9.73;4.80;;;14.10;99.90;;;;;;4845553;29;20052;-77
2021/09/19 06:00:56;;;;;;;12.40;5.20;;;14.20;99.90;;;;;;4861670;29;20503;-77
2021/09/19 06:03:22;;;;;;;9.10;4.80;;;14.20;99.90;;;;;;4856716;29;20433;-78
2021/09/19 06:05:48;;;;;;;9.30;5.13;;;14.10;99.90;;;;;;4856442;29;20097;-78
2021/09/19 06:08:14;;;;;;;7.78;4.30;;;14.10;99.90;;;;;;4859959;29;20050;-77
2021/09/19 06:10:40;;;;;;;8.57;4.68;;;14.10;99.90;;;;;;4831488;29;20053;-78
2021/09/19 06:13:05;;;;;;;9.27;5.18;;;14.20;99.90;;;;;;4861466;29;20045;-78
2021/09/19 06:15:31;;;;;;;8.45;4.88;;;14.10;99.90;;;;;;4844549;29;20060;-78
2021/09/19 06:17:57;;;;;;;8.85;5.00;;;14.10;99.90;;;;;;4830830;29;20088;-78
2021/09/19 06:20:23;;;;;;;9.77;5.22;;;14.10;99.90;;;;;;4861367;29;20101;-78
2021/09/19 06:22:48;;;;;;;11.38;4.85;;;14.20;99.90;;;;;;4862582;29;20053;-77
2021/09/19 06:25:15;;;;;;;12.23;5.32;;;14.20;99.90;;;;;;4844333;29;20049;-77
2021/09/19 06:27:40;;;;;;;14.98;5.30;;;14.20;99.90;;;;;;4861316;29;20057;-77
2021/09/19 06:30:08;;;;;;;8.00;5.15;;;14.20;99.90;;;;;;4861522;29;20037;-77
2021/09/19 06:32:34;;;;;;;8.13;5.20;;;14.20;99.90;;;;;;4845891;29;20041;-77
2021/09/19 06:35:00;;;;;;;8.50;5.10;;;14.20;99.90;;;;;;4859861;29;20483;-77
2021/09/19 06:37:26;;;;;;;11.65;5.30;;;14.30;99.90;;;;;;4858606;29;20069;-77
2021/09/19 06:39:52;;;;;;;10.55;5.80;;;14.20;99.90;;;;;;4861224;29;20065;-77
2021/09/19 06:42:17;;;;;;;8.35;5.15;;;14.30;99.90;;;;;;4851246;29;20415;-77
2021/09/19 06:44:43;;;;;;;8.70;5.38;;;14.30;99.90;;;;;;4834582;29;20490;-77
2021/09/19 06:47:09;;;;;;;9.07;5.35;;;14.30;99.90;;;;;;4845818;29;20061;-77
2021/09/19 06:49:35;;;;;;;14.25;5.32;;;14.30;99.90;;;;;;4860963;29;20041;-77
2021/09/19 06:52:00;;;;;;;11.05;5.25;;;14.30;99.90;;;;;;4860592;29;20041;-77
2021/09/19 06:54:26;;;;;;;9.77;5.07;;;14.30;99.90;;;;;;4860675;29;20406;-78
2021/09/19 06:56:52;;;;;;;7.47;4.88;;;14.30;99.90;;;;;;4860949;29;20414;-77
2021/09/19 06:59:17;;;;;;;8.75;5.25;;;14.30;99.90;;;;;;4859304;29;20049;-77
2021/09/19 07:01:44;;;;;;;9.93;5.63;;;14.40;99.90;;;;;;4861787;29;20137;-77
2021/09/19 07:04:11;;;;;;;13.57;5.45;;;14.40;99.90;;;;;;4859589;29;20081;-77
2021/09/19 07:06:36;;;;;;;9.32;5.30;;;14.40;99.90;;;;;;4860501;29;20094;-77
2021/09/19 07:09:03;;;;;;;9.35;5.47;;;14.40;99.90;;;;;;4862047;29;20486;-77
2021/09/19 07:11:32;;;;;;;13.43;5.90;;;14.30;99.90;;;;;;4860381;29;20110;-77
2021/09/19 07:13:58;;;;;;;10.75;5.45;;;14.40;99.90;;;;;;4859051;29;20076;-77
2021/09/19 07:16:26;;;;;;;10.05;5.80;;;14.30;99.90;;;;;;4859125;29;20133;-77
2021/09/19 07:18:55;;;;;;;10.88;5.70;;;14.30;99.90;;;;;;4845310;29;20049;-78
2021/09/19 07:21:22;;;;;;;10.18;5.30;;;14.40;99.90;;;;;;4860417;29;20363;-78
2021/09/19 07:23:48;;;;;;;12.02;5.53;;;14.30;99.90;;;;;;4859957;29;20037;-78
2021/09/19 07:26:14;;;;;;;12.25;5.75;;;14.30;99.90;;;;;;4858299;29;20439;-79
2021/09/19 07:28:40;;;;;;;11.07;5.60;;;14.30;99.90;;;;;;4844830;29;20037;-81
2021/09/19 07:31:13;;;;;;;10.25;5.68;;;14.40;99.90;;;;;;4858200;29;20044;-79
2021/09/19 07:33:39;;;;;;;12.43;5.78;;;14.40;99.90;;;;;;4857370;29;20663;-80
2021/09/19 07:36:06;;;;;;;10.10;5.53;;;14.30;99.90;;;;;;4854705;29;20203;-80
2021/09/19 07:38:32;;;;;;;10.57;5.50;;;14.30;99.90;;;;;;4859111;29;20148;-80
2021/09/19 07:40:59;;;;;;;10.25;6.20;;;14.40;99.90;;;;;;4844248;29;20533;-80
2021/09/19 07:43:31;;;;;;;17.55;6.20;;;14.40;99.90;;;;;;4856902;29;20038;-88
2021/09/19 07:45:57;;;;;;;12.40;5.80;;;14.40;99.90;;;;;;4858570;29;20101;-88
2021/09/19 07:48:24;;;;;;;12.15;5.55;;;14.40;99.90;;;;;;4837136;29;20049;-88
2021/09/19 07:50:50;;;;;;;10.20;6.40;;;14.50;99.90;;;;;;4843368;29;20046;-80
2021/09/19 07:53:16;;;;;;;11.57;6.15;;;14.50;99.90;;;;;;4827358;29;20120;-79
2021/09/19 07:55:42;;;;;;;9.43;5.63;;;14.50;99.90;;;;;;4843205;29;20041;-87
2021/09/19 07:58:08;;;;;;;13.73;6.40;;;14.50;99.90;;;;;;4836386;29;20448;-88
2021/09/19 08:00:33;;;;;;;12.93;6.25;;;14.40;99.90;;;;;;4841228;29;20053;-88
2021/09/19 08:02:59;;;;;;;11.32;6.18;;;14.50;99.90;;;;;;4854899;29;20533;-85
2021/09/19 08:05:25;;;;;;;11.05;6.20;;;14.50;99.90;;;;;;4844552;29;20049;-85
2021/09/19 08:07:52;;;;;;;11.43;6.10;;;14.60;99.90;;;;;;4824051;29;20093;-83
2021/09/19 08:10:18;;;;;;;11.73;6.00;;;14.60;99.90;;;;;;4827491;29;20075;-83
2021/09/19 08:12:47;;;;;;;9.88;5.90;;;14.60;99.90;;;;;;4842820;29;20497;-83
2021/09/19 08:15:15;;;;;;;10.48;6.43;;;14.60;99.90;;;;;;4856080;29;20042;-83
2021/09/19 08:17:43;;;;;;;14.30;5.90;;;14.70;99.90;;;;;;4852301;29;20045;-81
2021/09/19 08:20:11;;;;;;;10.48;5.88;;;14.70;99.90;;;;;;4853008;29;20048;-88
2021/09/19 08:22:40;;;;;;;10.75;6.15;;;14.90;99.90;;;;;;4857762;29;20051;-84
2021/09/19 08:25:07;;;;;;;9.95;6.15;;;14.70;99.90;;;;;;4854253;29;20041;-85
2021/09/19 08:27:36;;;;;;;10.23;6.00;;;14.80;99.90;;;;;;4849238;29;20052;-87
2021/09/19 08:30:09;;;;;;;11.55;6.20;;;14.90;99.90;;;;;;4852604;29;20052;-86
2021/09/19 08:32:35;;;;;;;9.40;5.13;;;14.90;99.90;;;;;;4858780;29;20041;-84
2021/09/19 08:35:01;;;;;;;10.48;5.97;;;15.00;99.90;;;;;;4858325;29;20066;-87
2021/09/19 08:37:27;;;;;;;8.55;6.25;;;15.00;99.90;;;;;;4839076;29;20041;-89
2021/09/19 08:39:53;;;;;;;10.52;5.93;;;15.00;99.90;;;;;;4819728;29;20160;-87
2021/09/19 08:42:20;;;;;;;11.82;6.10;;;15.00;99.90;;;;;;4838627;29;20056;-87
2021/09/19 08:44:46;;;;;;;11.48;6.10;;;15.00;99.90;;;;;;4842010;29;20049;-88
2021/09/19 08:47:12;;;;;;;11.40;6.00;;;15.00;99.90;;;;;;4835079;29;20046;-86
2021/09/19 08:49:43;;;;;;;9.52;5.57;;;15.00;99.90;;;;;;4842285;29;20047;-85
2021/09/19 08:52:10;;;;;;;9.90;5.30;;;15.10;99.90;;;;;;4839167;29;20049;-87
2021/09/19 08:54:37;;;;;;;10.20;5.85;;;15.10;99.90;;;;;;4855589;29;20042;-88
2021/09/19 08:57:04;;;;;;;8.57;5.72;;;15.30;99.90;;;;;;4850268;29;20406;-85
2021/09/19 08:59:46;;;;;;;7.80;5.38;;;15.20;99.90;;;;;;4858340;29;20059;-89
2021/09/19 09:02:18;;;;;;;9.50;5.72;;;15.20;99.90;;;;;;4835212;29;20054;-87
2021/09/19 09:04:45;;;;;;;10.23;5.85;;;15.30;99.90;;;;;;4855370;29;20054;-80
2021/09/19 09:07:12;;;;;;;11.23;5.50;;;15.30;99.90;;;;;;4859937;29;20083;-77
2021/09/19 09:09:53;;;;;;;9.68;5.72;;;15.30;99.90;;;;;;4862700;29;20502;-86
2021/09/19 09:12:19;;;;;;;10.32;5.93;;;15.40;99.90;;;;;;4846724;29;20048;-83
2021/09/19 09:14:51;;;;;;;8.15;5.60;;;15.50;99.90;;;;;;4860908;29;20120;-89
2021/09/19 09:17:25;;;;;;;10.63;5.68;;;15.50;99.90;;;;;;4861439;29;20057;-86
2021/09/19 09:19:56;;;;;;;11.23;5.78;;;15.50;99.90;;;;;;4845592;29;20081;-84
2021/09/19 09:22:31;;;;;;;9.30;5.80;;;15.60;99.90;;;;;;4845892;29;20120;-83
2021/09/19 09:25:07;;;;;;;11.15;5.88;;;15.60;99.90;;;;;;4859521;29;20050;-87
2021/09/19 09:27:45;;;;;;;14.13;6.13;;;15.70;99.90;;;;;;4861705;29;20073;-86
2021/09/19 09:30:29;;;;;;;9.98;5.50;;;15.70;99.90;;;;;;4858038;29;20044;-87
2021/09/19 09:33:04;;;;;;;11.43;5.75;;;15.80;99.90;;;;;;4845900;29;20046;-84
2021/09/19 09:35:35;;;;;;;9.77;5.53;;;15.80;99.90;;;;;;4861147;29;20367;-82
2021/09/19 09:38:25;;;;;;;15.18;6.03;;;15.90;99.90;;;;;;4846486;29;20397;-80
2021/09/19 09:40:55;;;;;;;12.10;6.05;;;15.90;99.90;;;;;;4860980;29;20104;-79
2021/09/19 09:43:21;;;;;;;11.02;5.90;;;15.90;99.90;;;;;;4842438;29;20042;-78
2021/09/19 09:45:49;;;;;;;7.90;5.32;;;16.00;99.90;;;;;;4845207;29;20078;-86
2021/09/19 09:48:31;;;;;;;12.23;5.72;;;16.00;99.90;;;;;;4862007;29;20038;-86
2021/09/19 09:51:00;;;;;;;7.68;5.18;;;16.00;99.90;;;;;;4854761;29;20038;-85
2021/09/19 09:53:27;;;;;;;9.43;5.40;;;16.10;99.90;;;;;;4861809;29;20080;-78
2021/09/19 09:55:56;;;;;;;10.63;5.78;;;16.00;99.90;;;;;;4861650;29;20124;-78
2021/09/19 09:58:22;;;;;;;8.20;5.15;;;16.10;99.90;;;;;;4863456;29;20387;-78
2021/09/19 10:00:50;;;;;;;10.25;5.28;;;16.10;99.90;;;;;;4840425;29;20465;-86
2021/09/19 10:03:18;;;;;;;11.00;5.63;;;16.10;99.90;;;;;;4862935;29;20491;-86
2021/09/19 10:05:44;;;;;;;10.82;5.55;;;16.20;99.90;;;;;;4846684;29;20435;-86
2021/09/19 10:08:11;;;;;;;8.25;5.95;;;16.20;99.90;;;;;;4845079;29;20045;-85
2021/09/19 10:10:44;;;;;;;9.30;5.82;;;16.50;99.90;;;;;;4861756;29;20102;-85
2021/09/19 10:13:12;;;;;;;10.98;5.82;;;16.30;99.90;;;;;;4861733;29;20069;-86
2021/09/19 10:15:38;;;;;;;9.65;5.75;;;16.40;99.90;;;;;;4861546;29;20037;-85
2021/09/19 10:18:05;;;;;;;10.95;5.57;;;16.50;99.90;;;;;;4845219;29;20061;-86
2021/09/19 10:20:38;;;;;;;10.50;4.82;;;16.60;99.90;;;;;;4860978;29;20049;-85
2021/09/19 10:23:28;;;;;;;9.25;5.18;;;16.40;99.90;;;;;;4863644;29;20045;-78
2021/09/19 10:25:55;;;;;;;8.15;4.85;;;16.60;99.90;;;;;;4860152;29;20054;-78
2021/09/19 10:28:25;;;;;;;12.63;4.68;;;16.60;99.90;;;;;;4845941;29;20049;-78
2021/09/19 10:31:09;;;;;;;8.07;4.63;;;16.70;99.90;;;;;;4846162;29;20101;-78
2021/09/19 10:33:57;;;;;;;7.13;4.28;;;16.80;99.90;;;;;;4862531;29;20100;-78
2021/09/19 10:36:26;;;;;;;9.98;4.75;;;16.80;99.90;;;;;;4850748;29;20109;-78
2021/09/19 10:38:52;;;;;;;7.68;4.30;;;16.90;99.90;;;;;;4861216;29;20046;-85
2021/09/19 10:41:22;;;;;;;8.63;4.15;;;16.90;99.90;;;;;;4861412;29;20076;-85
2021/09/19 10:43:53;;;;;;;9.07;4.43;;;17.00;99.90;;;;;;4862360;29;20050;-85
2021/09/19 10:46:34;;;;;;;7.70;4.25;;;17.10;99.90;;;;;;4844077;29;20047;-86
2021/09/19 10:49:20;;;;;;;8.73;5.22;;;17.10;99.90;;;;;;4862359;29;20049;-85
2021/09/19 10:52:01;;;;;;;7.93;4.40;;;17.10;99.90;;;;;;4861439;29;20042;-85
2021/09/19 10:54:42;;;;;;;6.55;4.78;;;17.20;99.90;;;;;;4845529;29;20065;-86
2021/09/19 10:57:29;;;;;;;9.55;4.82;;;17.20;99.90;;;;;;4861046;29;20521;-85
2021/09/19 11:00:18;;;;;;;7.43;5.60;;;17.20;99.90;;;;;;4848280;29;20054;-85
2021/09/19 11:03:04;;;;;;;11.18;4.88;;;17.10;99.90;;;;;;4860684;29;20128;-85
2021/09/19 11:05:35;;;;;;;6.50;5.35;;;17.10;99.90;;;;;;4861153;29;20098;-86
2021/09/19 11:08:14;;;;;;;8.45;4.82;;;17.10;99.90;;;;;;4860820;29;20141;-85
2021/09/19 11:10:45;;;;;;;12.43;5.00;;;17.10;99.90;;;;;;4860785;29;20050;-85
2021/09/19 11:13:41;;;;;;;10.60;4.40;;;17.10;99.90;;;;;;4860621;29;20570;-78
2021/09/19 11:16:06;;;;;;;7.63;4.35;;;17.00;99.90;;;;;;4860702;29;20056;-78
2021/09/19 11:18:42;;;;;;;7.18;4.38;;;17.00;99.90;;;;;;4860347;29;20486;-78
2021/09/19 11:21:11;;;;;;;8.00;4.28;;;17.10;99.90;;;;;;4854151;29;20053;-78
2021/09/19 11:23:45;;;;;;;7.65;4.10;;;17.10;99.90;;;;;;4860285;29;20045;-78
2021/09/19 11:26:28;;;;;;;7.45;4.13;;;17.10;99.90;;;;;;4860242;29;20124;-85
2021/09/19 11:28:57;;;;;;;7.13;3.67;;;17.20;99.90;;;;;;4861291;29;20041;-85
2021/09/19 11:31:23;;;;;;;10.45;3.92;;;17.20;99.90;;;;;;4844656;29;20053;-85
2021/09/19 11:33:49;;;;;;;7.30;4.15;;;17.30;99.90;;;;;;4861390;29;20049;-85
2021/09/19 11:36:18;;;;;;;6.43;4.10;;;17.40;99.90;;;;;;4843879;29;20037;-85
2021/09/19 11:38:52;;;;;;;9.07;4.45;;;17.50;99.90;;;;;;4860611;29;20049;-85
2021/09/19 11:41:20;;;;;;;10.32;4.80;;;17.50;99.90;;;;;;4833150;29;20466;-85
2021/09/19 11:43:49;;;;;;;10.88;4.95;;;17.60;99.90;;;;;;4845074;29;20443;-85
2021/09/19 11:46:17;;;;;;;8.95;4.18;;;17.50;99.90;;;;;;4844564;29;20105;-85
2021/09/19 11:48:43;;;;;;;8.55;4.55;;;17.50;99.90;;;;;;4861272;29;20097;-85
2021/09/19 11:51:15;;;;;;;8.02;4.28;;;17.50;99.90;;;;;;4861234;29;20040;-85
2021/09/19 11:53:49;;;;;;;7.20;4.25;;;17.60;99.90;;;;;;4871730;29;20154;-85
2021/09/19 11:56:16;;;;;;;6.78;3.90;;;17.70;99.90;;;;;;4858093;29;20547;-85
2021/09/19 11:58:43;;;;;;;7.55;4.13;;;17.70;99.90;;;;;;4844824;29;20049;-85
2021/09/19 12:01:09;;;;;;;7.15;4.18;;;17.80;99.90;;;;;;4860761;29;20054;-84
2021/09/19 12:03:35;;;;;;;5.80;3.40;;;17.90;99.90;;;;;;4860070;29;20110;-85
2021/09/19 12:06:02;;;;;;;8.10;4.00;;;18.00;99.90;;;;;;4860885;29;20041;-85
2021/09/19 12:08:30;;;;;;;9.32;3.53;;;18.00;99.90;;;;;;4859628;29;20080;-85
2021/09/19 12:10:57;;;;;;;5.88;3.65;;;18.10;99.90;;;;;;4860020;29;20069;-85
2021/09/19 12:13:28;;;;;;;6.38;3.67;;;18.10;99.90;;;;;;4859491;29;20041;-85
2021/09/19 12:16:03;;;;;;;7.78;4.88;;;18.10;99.90;;;;;;4844558;29;20045;-85
2021/09/19 12:18:31;;;;;;;6.27;3.73;;;18.20;99.90;;;;;;4859444;29;20193;-85
2021/09/19 12:21:00;;;;;;;9.02;3.95;;;18.30;99.90;;;;;;4859772;29;20052;-84
2021/09/19 12:23:26;;;;;;;8.07;4.10;;;18.40;99.90;;;;;;4843228;29;20053;-85
2021/09/19 12:25:52;;;;;;;9.63;4.13;;;18.40;99.90;;;;;;4860631;29;20502;-85
2021/09/19 12:28:28;;;;;;;9.63;4.60;;;18.40;99.90;;;;;;4859602;29;20053;-86
2021/09/19 12:30:54;;;;;;;10.30;4.72;;;18.30;99.90;;;;;;4859589;29;20084;-85
2021/09/19 12:33:20;;;;;;;8.23;4.72;;;18.20;99.90;;;;;;4859733;29;20121;-85
2021/09/19 12:35:45;;;;;;;7.63;4.43;;;18.00;99.90;;;;;;4859490;29;20048;-85
2021/09/19 12:38:13;;;;;;;11.07;4.32;;;17.90;99.90;;;;;;4860177;29;20129;-83
2021/09/19 12:40:46;;;;;;;6.65;3.80;;;17.80;99.90;;;;;;4841559;29;20061;-78
2021/09/19 12:43:15;;;;;;;10.18;3.78;;;17.70;99.90;;;;;;4857336;29;20049;-80
2021/09/19 12:45:52;;;;;;;8.88;4.13;;;17.70;99.90;;;;;;4853574;29;20058;-76
2021/09/19 12:48:26;;;;;;;8.13;3.90;;;17.70;99.90;;;;;;4847948;29;20145;-84